createdAt,value
2019-04-13T00:00:53.293Z,8.40
2019-04-13T00:01:53.286Z,8.30
2019-04-13T00:02:53.266Z,8.40
2019-04-13T00:03:53.361Z,8.30
2019-04-13T00:04:53.231Z,9.00
2019-04-13T00:05:53.219Z,9.00
2019-04-13T00:06:53.223Z,9.20
2019-04-13T00:07:53.252Z,8.00
2019-04-13T00:08:53.207Z,8.30
2019-04-13T00:09:53.196Z,8.40
2019-04-13T00:10:53.163Z,9.20
2019-04-13T00:11:53.158Z,9.40
2019-04-13T00:12:53.144Z,9.30
2019-04-13T00:13:53.133Z,8.90
2019-04-13T00:14:53.138Z,9.20
2019-04-13T00:15:53.126Z,8.00
2019-04-13T00:16:53.107Z,7.80
2019-04-13T00:17:53.088Z,8.50
2019-04-13T00:18:53.082Z,9.30
2019-04-13T00:19:53.082Z,9.40
2019-04-13T00:20:53.084Z,9.00
2019-04-13T00:21:53.051Z,10.00
2019-04-13T00:22:53.046Z,8.10
2019-04-13T00:23:53.036Z,9.30
2019-04-13T00:24:53.011Z,9.30
2019-04-13T00:25:53.005Z,8.90
2019-04-13T00:26:53.002Z,8.60
2019-04-13T00:27:52.977Z,8.80
2019-04-13T00:28:52.978Z,8.90
2019-04-13T00:29:52.965Z,8.60
2019-04-13T00:30:52.996Z,8.60
2019-04-13T00:31:52.972Z,9.90
2019-04-13T00:32:52.934Z,8.30
2019-04-13T00:33:52.931Z,8.00
2019-04-13T00:34:52.932Z,8.40
2019-04-13T00:35:52.913Z,7.60
2019-04-13T00:36:52.879Z,8.40
2019-04-13T00:37:52.886Z,9.40
2019-04-13T00:38:52.867Z,8.00
2019-04-13T00:39:52.860Z,8.60
2019-04-13T00:40:52.839Z,8.60
2019-04-13T00:41:52.848Z,8.40
2019-04-13T00:42:52.832Z,9.00
2019-04-13T00:43:52.832Z,9.20
2019-04-13T00:44:52.828Z,9.00
2019-04-13T00:45:52.786Z,9.10
2019-04-13T00:46:52.785Z,8.40
2019-04-13T00:47:52.761Z,9.40
2019-04-13T00:48:52.752Z,8.30
2019-04-13T00:49:52.740Z,9.30
2019-04-13T00:50:52.743Z,8.00
2019-04-13T00:51:52.818Z,8.20
2019-04-13T00:52:52.720Z,9.00
2019-04-13T00:53:52.727Z,8.20
2019-04-13T00:54:52.689Z,8.20
2019-04-13T00:55:52.678Z,8.10
2019-04-13T00:56:52.685Z,8.00
2019-04-13T00:57:52.681Z,9.00
2019-04-13T00:58:52.676Z,7.90
2019-04-13T00:59:52.662Z,8.80
2019-04-13T01:00:52.647Z,8.30
2019-04-13T01:01:52.660Z,8.70
2019-04-13T01:02:52.761Z,8.30
2019-04-13T01:03:52.599Z,8.90
2019-04-13T01:04:53.791Z,7.90
2019-04-13T01:05:52.573Z,8.40
2019-04-13T01:06:52.579Z,8.40
2019-04-13T01:07:52.571Z,9.40
2019-04-13T01:08:52.545Z,7.90
2019-04-13T01:09:52.548Z,8.50
2019-04-13T01:10:52.518Z,8.40
2019-04-13T01:11:52.514Z,8.20
2019-04-13T01:12:52.519Z,8.90
2019-04-13T01:13:52.498Z,8.20
2019-04-13T01:14:52.490Z,8.10
2019-04-13T01:15:52.481Z,7.60
2019-04-13T01:16:52.488Z,7.60
2019-04-13T01:17:52.491Z,7.80
2019-04-13T01:18:52.433Z,8.00
2019-04-13T01:19:52.444Z,7.60
2019-04-13T01:20:52.465Z,7.80
2019-04-13T01:21:52.404Z,8.20
2019-04-13T01:22:52.389Z,7.70
2019-04-13T01:23:52.392Z,7.50
2019-04-13T01:24:52.406Z,7.50
2019-04-13T01:25:52.362Z,7.90
2019-04-13T01:26:52.362Z,8.50
2019-04-13T01:27:52.357Z,8.40
2019-04-13T01:28:52.359Z,7.20
2019-04-13T01:29:52.333Z,7.10
2019-04-13T01:30:52.326Z,8.20
2019-04-13T01:31:52.299Z,7.20
2019-04-13T01:32:52.300Z,7.80
2019-04-13T01:33:52.289Z,8.10
2019-04-13T01:34:52.277Z,8.40
2019-04-13T01:35:52.270Z,8.80
2019-04-13T01:36:52.251Z,7.40
2019-04-13T01:37:52.242Z,7.90
2019-04-13T01:38:52.232Z,8.30
2019-04-13T01:39:52.224Z,8.60
2019-04-13T01:40:52.239Z,7.20
2019-04-13T01:41:52.198Z,7.30
2019-04-13T01:42:52.184Z,7.70
2019-04-13T01:43:52.172Z,9.60
2019-04-13T01:44:52.180Z,7.70
2019-04-13T01:45:52.140Z,7.80
2019-04-13T01:46:52.186Z,8.70
2019-04-13T01:47:52.118Z,8.10
2019-04-13T01:48:52.108Z,8.70
2019-04-13T01:49:52.201Z,6.90
2019-04-13T01:50:52.125Z,8.00
2019-04-13T01:51:52.088Z,7.10
2019-04-13T01:52:52.095Z,8.10
2019-04-13T01:53:52.064Z,7.20
2019-04-13T01:54:52.064Z,6.90
2019-04-13T01:55:52.040Z,7.40
2019-04-13T01:56:52.025Z,7.70
2019-04-13T01:57:52.015Z,6.40
2019-04-13T01:58:52.007Z,7.90
2019-04-13T01:59:52.003Z,7.00
2019-04-13T02:00:52.000Z,7.40
2019-04-13T02:01:51.974Z,6.70
2019-04-13T02:02:51.981Z,7.60
2019-04-13T02:03:51.953Z,8.00
2019-04-13T02:04:51.941Z,6.90
2019-04-13T02:05:51.943Z,6.60
2019-04-13T02:06:51.938Z,7.20
2019-04-13T02:07:51.917Z,7.30
2019-04-13T02:08:51.898Z,6.90
2019-04-13T02:09:51.890Z,8.50
2019-04-13T02:10:51.880Z,7.60
2019-04-13T02:11:51.867Z,7.10
2019-04-13T02:12:51.952Z,6.60
2019-04-13T02:13:51.855Z,7.50
2019-04-13T02:14:51.841Z,7.90
2019-04-13T02:15:51.844Z,7.20
2019-04-13T02:16:51.825Z,8.20
2019-04-13T02:17:51.818Z,7.30
2019-04-13T02:18:51.817Z,7.20
2019-04-13T02:19:51.807Z,7.00
2019-04-13T02:20:51.819Z,6.50
2019-04-13T02:21:51.809Z,7.60
2019-04-13T02:22:51.764Z,8.00
2019-04-13T02:23:51.753Z,7.00
2019-04-13T02:24:51.761Z,7.20
2019-04-13T02:25:51.769Z,7.00
2019-04-13T02:26:51.726Z,6.90
2019-04-13T02:27:51.717Z,7.40
2019-04-13T02:28:51.718Z,6.30
2019-04-13T02:29:51.704Z,6.90
2019-04-13T02:30:51.716Z,9.00
2019-04-13T02:31:51.682Z,7.60
2019-04-13T02:32:51.687Z,8.10
2019-04-13T02:33:51.674Z,7.60
2019-04-13T02:34:51.656Z,7.80
2019-04-13T02:35:51.673Z,6.70
2019-04-13T02:36:51.622Z,7.00
2019-04-13T02:37:51.626Z,7.50
2019-04-13T02:38:51.624Z,6.80
2019-04-13T02:39:51.589Z,7.40
2019-04-13T02:40:51.580Z,7.60
2019-04-13T02:41:51.585Z,7.10
2019-04-13T02:42:51.563Z,7.80
2019-04-13T02:43:51.564Z,7.30
2019-04-13T02:44:51.525Z,6.80
2019-04-13T02:45:51.546Z,7.00
2019-04-13T02:46:51.549Z,7.40
2019-04-13T02:47:51.513Z,9.20
2019-04-13T02:48:51.506Z,6.90
2019-04-13T02:49:51.522Z,7.40
2019-04-13T02:50:51.470Z,7.40
2019-04-13T02:51:51.478Z,7.50
2019-04-13T02:52:51.461Z,8.10
2019-04-13T02:53:51.456Z,7.60
2019-04-13T02:54:51.429Z,7.70
2019-04-13T02:55:51.420Z,8.40
2019-04-13T02:56:51.406Z,7.40
2019-04-13T02:57:51.407Z,8.60
2019-04-13T02:58:51.422Z,7.50
2019-04-13T02:59:51.397Z,7.40
2019-04-13T03:00:51.397Z,7.30
2019-04-13T03:01:51.428Z,7.90
2019-04-13T03:02:51.347Z,8.90
2019-04-13T03:03:51.325Z,7.40
2019-04-13T03:04:51.329Z,8.80
2019-04-13T03:05:51.348Z,7.70
2019-04-13T03:06:51.309Z,8.40
2019-04-13T03:07:51.286Z,8.50
2019-04-13T03:08:51.316Z,8.60
2019-04-13T03:09:51.262Z,7.50
2019-04-13T03:10:51.265Z,7.80
2019-04-13T03:11:51.275Z,8.20
2019-04-13T03:12:51.242Z,9.50
2019-04-13T03:13:51.254Z,8.50
2019-04-13T03:14:51.229Z,9.00
2019-04-13T03:15:51.214Z,8.10
2019-04-13T03:16:51.197Z,8.00
2019-04-13T03:17:51.200Z,8.60
2019-04-13T03:18:51.200Z,7.90
2019-04-13T03:19:51.186Z,8.90
2019-04-13T03:20:51.145Z,8.80
2019-04-13T03:21:51.149Z,8.40
2019-04-13T03:22:51.172Z,8.40
2019-04-13T03:23:51.121Z,8.80
2019-04-13T03:24:51.106Z,8.60
2019-04-13T03:25:51.110Z,7.70
2019-04-13T03:26:51.093Z,7.70
2019-04-13T03:27:51.088Z,9.00
2019-04-13T03:28:51.074Z,8.80
2019-04-13T03:29:51.051Z,7.70
2019-04-13T03:30:51.043Z,8.30
2019-04-13T03:31:51.074Z,8.40
2019-04-13T03:32:51.021Z,8.80
2019-04-13T03:33:51.032Z,8.90
2019-04-13T03:34:51.007Z,8.00
2019-04-13T03:35:59.238Z,8.40
2019-04-13T03:36:52.006Z,9.20
2019-04-13T03:37:50.994Z,7.80
2019-04-13T03:38:50.954Z,8.10
2019-04-13T03:39:50.947Z,7.40
2019-04-13T03:40:50.947Z,8.50
2019-04-13T03:41:50.950Z,9.00
2019-04-13T03:42:50.913Z,9.70
2019-04-13T03:43:50.929Z,7.80
2019-04-13T03:44:50.908Z,9.80
2019-04-13T03:45:50.887Z,9.80
2019-04-13T03:46:50.928Z,7.90
2019-04-13T03:47:50.857Z,9.20
2019-04-13T03:48:50.897Z,8.20
2019-04-13T03:49:50.850Z,9.00
2019-04-13T03:50:50.833Z,8.70
2019-04-13T03:51:50.855Z,8.80
2019-04-13T03:52:50.840Z,9.00
2019-04-13T03:53:50.818Z,8.80
2019-04-13T03:54:50.841Z,9.80
2019-04-13T03:55:50.778Z,9.00
2019-04-13T03:56:50.772Z,8.20
2019-04-13T03:57:50.761Z,8.90
2019-04-13T03:58:50.758Z,10.90
2019-04-13T03:59:50.752Z,9.60
2019-04-13T04:00:50.753Z,8.90
2019-04-13T04:01:50.723Z,9.80
2019-04-13T04:02:50.703Z,10.40
2019-04-13T04:03:50.714Z,10.00
2019-04-13T04:04:50.708Z,8.70
2019-04-13T04:05:50.673Z,9.50
2019-04-13T04:06:50.680Z,8.60
2019-04-13T04:07:50.664Z,8.80
2019-04-13T04:08:50.657Z,8.80
2019-04-13T04:09:50.662Z,8.70
2019-04-13T04:10:50.624Z,9.50
2019-04-13T04:11:50.614Z,9.80
2019-04-13T04:12:50.614Z,9.00
2019-04-13T04:13:50.584Z,9.50
2019-04-13T04:14:50.625Z,9.30
2019-04-13T04:15:50.583Z,9.30
2019-04-13T04:16:50.603Z,9.20
2019-04-13T04:17:50.545Z,9.10
2019-04-13T04:18:50.532Z,9.50
2019-04-13T04:19:50.523Z,9.80
2019-04-13T04:20:50.551Z,9.90
2019-04-13T04:21:50.520Z,10.70
2019-04-13T04:22:50.534Z,9.40
2019-04-13T04:23:50.519Z,11.20
2019-04-13T04:24:50.469Z,9.60
2019-04-13T04:25:50.487Z,10.20
2019-04-13T04:26:50.471Z,9.60
2019-04-13T04:27:50.458Z,9.50
2019-04-13T04:28:50.424Z,10.30
2019-04-13T04:29:50.443Z,8.90
2019-04-13T04:30:50.413Z,10.00
2019-04-13T04:31:50.410Z,10.00
2019-04-13T04:32:50.393Z,10.10
2019-04-13T04:33:50.407Z,11.90
2019-04-13T04:34:50.398Z,10.50
2019-04-13T04:35:50.361Z,11.30
2019-04-13T04:36:50.386Z,10.80
2019-04-13T04:37:50.330Z,10.80
2019-04-13T04:38:50.330Z,10.60
2019-04-13T04:39:50.334Z,10.80
2019-04-13T04:40:50.317Z,11.50
2019-04-13T04:41:50.290Z,12.50
2019-04-13T04:42:50.287Z,12.20
2019-04-13T04:43:50.267Z,10.70
2019-04-13T04:44:50.257Z,12.40
2019-04-13T04:45:50.263Z,11.50
2019-04-13T04:46:50.270Z,12.00
2019-04-13T04:47:50.234Z,11.60
2019-04-13T04:48:50.246Z,12.80
2019-04-13T04:49:50.217Z,14.20
2019-04-13T04:50:50.193Z,12.20
2019-04-13T04:51:50.188Z,11.30
2019-04-13T04:52:50.185Z,10.70
2019-04-13T04:53:50.214Z,11.00
2019-04-13T04:54:50.188Z,12.30
2019-04-13T04:55:50.144Z,13.10
2019-04-13T04:56:50.153Z,11.80
2019-04-13T04:57:50.148Z,13.40
2019-04-13T04:58:50.171Z,11.90
2019-04-13T04:59:50.115Z,13.90
2019-04-13T05:00:50.099Z,13.20
2019-04-13T05:01:50.116Z,13.20
2019-04-13T05:02:50.116Z,13.00
2019-04-13T05:03:50.165Z,13.80
2019-04-13T05:04:50.053Z,13.80
2019-04-13T05:05:50.050Z,12.80
2019-04-13T05:06:50.032Z,12.20
2019-04-13T05:07:50.041Z,14.30
2019-04-13T05:08:50.005Z,14.80
2019-04-13T05:09:50.091Z,14.60
2019-04-13T05:10:49.986Z,13.80
2019-04-13T05:11:49.976Z,13.70
2019-04-13T05:12:50.028Z,14.90
2019-04-13T05:13:49.947Z,15.40
2019-04-13T05:14:49.938Z,15.90
2019-04-13T05:15:49.970Z,15.90
2019-04-13T05:16:49.929Z,16.50
2019-04-13T05:17:49.908Z,14.10
2019-04-13T05:18:49.949Z,15.50
2019-04-13T05:19:49.890Z,15.50
2019-04-13T05:20:49.873Z,14.40
2019-04-13T05:21:49.903Z,15.40
2019-04-13T05:22:49.857Z,15.00
2019-04-13T05:23:49.881Z,15.20
2019-04-13T05:24:49.854Z,15.90
2019-04-13T05:25:49.849Z,16.40
2019-04-13T05:26:49.844Z,15.80
2019-04-13T05:27:49.826Z,15.50
2019-04-13T05:28:49.821Z,16.30
2019-04-13T05:29:49.783Z,14.80
2019-04-13T05:30:49.771Z,15.70
2019-04-13T05:31:49.762Z,16.70
2019-04-13T05:32:49.767Z,16.70
2019-04-13T05:33:51.828Z,16.80
2019-04-13T05:34:49.737Z,16.20
2019-04-13T05:35:49.748Z,15.00
2019-04-13T05:36:49.713Z,15.70
2019-04-13T05:37:49.715Z,16.10
2019-04-13T05:38:49.702Z,16.00
2019-04-13T05:39:49.692Z,17.90
2019-04-13T05:40:49.679Z,17.80
2019-04-13T05:41:49.660Z,16.20
2019-04-13T05:42:49.652Z,16.90
2019-04-13T05:43:49.675Z,17.40
2019-04-13T05:44:49.639Z,15.90
2019-04-13T05:45:49.625Z,16.60
2019-04-13T05:46:49.630Z,17.20
2019-04-13T05:47:49.601Z,16.00
2019-04-13T05:48:49.627Z,16.50
2019-04-13T05:49:49.570Z,19.10
2019-04-13T05:50:49.561Z,17.80
2019-04-13T05:51:49.607Z,17.30
2019-04-13T05:52:49.540Z,16.80
2019-04-13T05:53:49.572Z,17.20
2019-04-13T05:54:49.517Z,18.00
2019-04-13T05:55:49.505Z,17.60
2019-04-13T05:56:49.520Z,17.80
2019-04-13T05:57:49.517Z,18.30
2019-04-13T05:58:49.518Z,16.60
2019-04-13T05:59:49.478Z,17.50
2019-04-13T06:00:49.454Z,18.50
2019-04-13T06:01:49.442Z,17.60
2019-04-13T06:02:49.445Z,17.70
2019-04-13T06:03:52.787Z,16.90
2019-04-13T06:04:49.412Z,16.50
2019-04-13T06:05:49.410Z,17.90
2019-04-13T06:06:59.446Z,17.10
2019-04-13T06:07:50.381Z,17.50
2019-04-13T06:08:49.408Z,17.80
2019-04-13T06:09:49.391Z,17.60
2019-04-13T06:10:50.055Z,18.20
2019-04-13T06:11:49.339Z,18.20
2019-04-13T06:12:53.425Z,17.40
2019-04-13T06:13:49.317Z,17.90
2019-04-13T06:14:49.306Z,18.10
2019-04-13T06:15:49.323Z,17.90
2019-04-13T06:16:49.322Z,17.20
2019-04-13T06:17:49.288Z,17.20
2019-04-13T06:18:51.781Z,17.90
2019-04-13T06:19:49.263Z,17.70
2019-04-13T06:20:49.274Z,17.80
2019-04-13T06:21:49.265Z,17.50
2019-04-13T06:22:52.007Z,18.40
2019-04-13T06:23:50.217Z,17.20
2019-04-13T06:24:51.919Z,16.70
2019-04-13T06:25:49.199Z,16.80
2019-04-13T06:26:49.212Z,17.60
2019-04-13T06:27:49.168Z,16.90
2019-04-13T06:28:49.156Z,18.20
2019-04-13T06:29:49.157Z,17.10
2019-04-13T06:30:49.155Z,15.70
2019-04-13T06:31:49.122Z,17.50
2019-04-13T06:32:49.133Z,17.40
2019-04-13T06:33:49.107Z,17.20
2019-04-13T06:34:49.121Z,15.20
2019-04-13T06:35:49.086Z,18.30
2019-04-13T06:36:49.099Z,17.00
2019-04-13T06:37:49.067Z,15.90
2019-04-13T06:38:49.058Z,16.10
2019-04-13T06:39:49.040Z,15.30
2019-04-13T06:40:51.356Z,19.40
2019-04-13T06:41:49.075Z,15.60
2019-04-13T06:42:50.630Z,15.80
2019-04-13T06:43:49.018Z,15.60
2019-04-13T06:44:49.000Z,16.30
2019-04-13T06:45:49.140Z,15.80
2019-04-13T06:46:48.965Z,16.10
2019-04-13T06:47:48.972Z,17.90
2019-04-13T06:48:48.958Z,15.60
2019-04-13T06:49:50.555Z,16.20
2019-04-13T06:50:48.917Z,17.00
2019-04-13T06:51:48.918Z,15.40
2019-04-13T06:52:48.922Z,14.50
2019-04-13T06:53:48.913Z,15.20
2019-04-13T06:54:48.908Z,17.10
2019-04-13T06:55:48.902Z,17.40
2019-04-13T06:56:48.867Z,16.90
2019-04-13T06:57:48.847Z,15.20
2019-04-13T06:58:51.572Z,15.10
2019-04-13T06:59:48.868Z,14.70
2019-04-13T07:00:48.842Z,14.50
2019-04-13T07:01:48.813Z,14.40
2019-04-13T07:02:48.800Z,14.50
2019-04-13T07:03:48.792Z,14.60
2019-04-13T07:04:48.830Z,15.10
2019-04-13T07:05:48.766Z,13.40
2019-04-13T07:06:51.016Z,13.20
2019-04-13T07:07:51.145Z,14.80
2019-04-13T07:08:49.985Z,14.00
2019-04-13T07:09:48.759Z,12.60
2019-04-13T07:10:50.135Z,14.40
2019-04-13T07:11:48.725Z,12.80
2019-04-13T07:12:48.705Z,12.90
2019-04-13T07:13:48.742Z,12.40
2019-04-13T07:14:48.661Z,13.40
2019-04-13T07:15:50.844Z,13.70
2019-04-13T07:16:48.642Z,12.20
2019-04-13T07:17:48.654Z,13.00
2019-04-13T07:18:48.713Z,13.20
2019-04-13T07:19:48.616Z,12.50
2019-04-13T07:20:49.185Z,12.80
2019-04-13T07:21:51.081Z,13.10
2019-04-13T07:22:48.579Z,13.90
2019-04-13T07:23:48.592Z,12.20
2019-04-13T07:24:48.563Z,13.20
2019-04-13T07:25:48.561Z,12.20
2019-04-13T07:26:48.545Z,12.30
2019-04-13T07:27:48.519Z,11.60
2019-04-13T07:28:48.519Z,14.40
2019-04-13T07:29:48.504Z,11.80
2019-04-13T07:30:48.942Z,12.70
2019-04-13T07:31:48.498Z,13.90
2019-04-13T07:32:48.478Z,12.70
2019-04-13T07:33:49.559Z,13.50
2019-04-13T07:34:48.442Z,13.00
2019-04-13T07:35:48.449Z,13.50
2019-04-13T07:36:50.566Z,12.90
2019-04-13T07:37:48.414Z,13.90
2019-04-13T07:38:48.425Z,13.10
2019-04-13T07:39:48.917Z,12.70
2019-04-13T07:40:51.270Z,12.50
2019-04-13T07:41:48.367Z,11.60
2019-04-13T07:42:48.359Z,12.10
2019-04-13T07:43:48.349Z,12.70
2019-04-13T07:44:48.402Z,13.00
2019-04-13T07:45:50.747Z,12.20
2019-04-13T07:46:49.325Z,13.10
2019-04-13T07:47:48.613Z,12.00
2019-04-13T07:48:48.298Z,11.90
2019-04-13T07:49:48.281Z,11.40
2019-04-13T07:50:48.334Z,12.00
2019-04-13T07:51:51.401Z,14.00
2019-04-13T07:52:48.287Z,12.20
2019-04-13T07:53:48.268Z,12.30
2019-04-13T07:54:48.226Z,12.30
2019-04-13T07:55:48.229Z,11.90
2019-04-13T07:56:48.240Z,13.30
2019-04-13T07:57:48.216Z,12.40
2019-04-13T07:58:48.205Z,12.40
2019-04-13T07:59:50.656Z,13.10
2019-04-13T08:00:48.164Z,12.50
2019-04-13T08:01:56.658Z,13.00
2019-04-13T08:02:49.162Z,12.20
2019-04-13T08:03:48.159Z,13.80
2019-04-13T08:04:48.127Z,13.50
2019-04-13T08:05:48.126Z,12.40
2019-04-13T08:06:48.103Z,12.50
2019-04-13T08:07:50.106Z,12.80
2019-04-13T08:08:48.103Z,13.10
2019-04-13T08:09:48.080Z,14.50
2019-04-13T08:10:48.082Z,13.30
2019-04-13T08:11:48.044Z,14.80
2019-04-13T08:12:48.046Z,13.60
2019-04-13T08:13:48.052Z,13.10
2019-04-13T08:14:48.034Z,13.50
2019-04-13T08:15:48.003Z,13.60
2019-04-13T08:16:48.009Z,13.80
2019-04-13T08:17:47.983Z,13.80
2019-04-13T08:18:47.990Z,13.60
2019-04-13T08:19:47.969Z,14.90
2019-04-13T08:20:47.974Z,12.80
2019-04-13T08:21:47.934Z,12.90
2019-04-13T08:22:47.946Z,13.20
2019-04-13T08:23:47.916Z,12.80
2019-04-13T08:24:48.663Z,13.40
2019-04-13T08:25:47.929Z,15.30
2019-04-13T08:26:48.918Z,14.40
2019-04-13T08:27:47.895Z,13.40
2019-04-13T08:28:47.897Z,13.20
2019-04-13T08:29:47.847Z,12.90
2019-04-13T08:30:49.517Z,13.60
2019-04-13T08:31:47.856Z,14.30
2019-04-13T08:32:47.820Z,13.30
2019-04-13T08:33:47.805Z,13.60
2019-04-13T08:34:47.795Z,15.30
2019-04-13T08:35:47.783Z,12.10
2019-04-13T08:36:47.775Z,12.00
2019-04-13T08:37:55.398Z,12.00
2019-04-13T08:38:58.550Z,10.90
2019-04-13T08:40:01.628Z,12.60
2019-04-13T08:40:48.730Z,12.10
2019-04-13T08:41:51.193Z,11.50
2019-04-13T08:42:47.720Z,12.00
2019-04-13T08:43:47.716Z,11.80
2019-04-13T08:44:47.687Z,11.80
2019-04-13T08:45:47.682Z,11.60
2019-04-13T08:46:47.675Z,12.10
2019-04-13T08:47:47.682Z,11.00
2019-04-13T08:48:47.653Z,11.10
2019-04-13T08:49:47.661Z,11.50
2019-04-13T08:50:47.621Z,13.10
2019-04-13T08:51:47.614Z,10.40
2019-04-13T08:52:48.468Z,12.60
2019-04-13T08:53:47.620Z,11.10
2019-04-13T08:54:47.576Z,11.80
2019-04-13T08:55:47.578Z,11.40
2019-04-13T08:56:47.604Z,11.80
2019-04-13T08:57:47.555Z,10.60
2019-04-13T08:58:47.549Z,10.90
2019-04-13T08:59:47.548Z,12.10
2019-04-13T09:00:47.513Z,11.20
2019-04-13T09:01:47.500Z,10.30
2019-04-13T09:02:47.504Z,11.30
2019-04-13T09:03:47.486Z,11.70
2019-04-13T09:04:47.490Z,10.90
2019-04-13T09:05:47.554Z,12.10
2019-04-13T09:06:47.463Z,11.10
2019-04-13T09:07:47.438Z,12.80
2019-04-13T09:08:47.456Z,11.90
2019-04-13T09:09:50.193Z,11.20
2019-04-13T09:10:47.420Z,12.40
2019-04-13T09:11:47.395Z,11.90
2019-04-13T09:12:50.178Z,12.70
2019-04-13T09:13:49.757Z,13.30
2019-04-13T09:14:47.401Z,12.70
2019-04-13T09:15:49.750Z,13.20
2019-04-13T09:16:47.469Z,13.30
2019-04-13T09:17:52.586Z,12.90
2019-04-13T09:18:48.482Z,12.70
2019-04-13T09:19:48.680Z,11.90
2019-04-13T09:20:47.796Z,10.10
2019-04-13T09:21:50.738Z,8.80
2019-04-13T09:22:52.874Z,8.90
2019-04-13T09:23:48.815Z,8.40
2019-04-13T09:24:48.669Z,10.00
2019-04-13T09:25:47.252Z,9.70
2019-04-13T09:26:47.249Z,9.70
2019-04-13T09:27:47.237Z,10.00
2019-04-13T09:28:47.247Z,11.20
2019-04-13T09:29:47.217Z,11.10
2019-04-13T09:30:47.188Z,10.10
2019-04-13T09:31:49.881Z,9.40
2019-04-13T09:32:47.168Z,9.00
2019-04-13T09:33:47.193Z,9.30
2019-04-13T09:34:47.146Z,7.60
2019-04-13T09:35:47.137Z,9.00
2019-04-13T09:36:47.127Z,7.50
2019-04-13T09:37:47.704Z,10.10
2019-04-13T09:38:47.492Z,7.50
2019-04-13T09:39:47.123Z,8.40
2019-04-13T09:40:47.099Z,7.20
2019-04-13T09:41:47.088Z,6.80
2019-04-13T09:42:47.301Z,7.50
2019-04-13T09:43:47.053Z,7.90
2019-04-13T09:44:47.053Z,7.60
2019-04-13T09:45:47.043Z,7.50
2019-04-13T09:46:47.017Z,6.60
2019-04-13T09:47:47.009Z,7.70
2019-04-13T09:48:48.843Z,7.20
2019-04-13T09:49:49.571Z,7.40
2019-04-13T09:50:46.991Z,7.40
2019-04-13T09:51:47.285Z,8.90
2019-04-13T09:52:46.970Z,8.50
2019-04-13T09:53:48.612Z,7.80
2019-04-13T09:54:46.942Z,8.80
2019-04-13T09:55:49.619Z,10.60
2019-04-13T09:56:46.909Z,10.20
2019-04-13T09:57:46.905Z,11.60
2019-04-13T09:58:46.890Z,9.50
2019-04-13T09:59:46.876Z,9.00
2019-04-13T10:00:46.866Z,11.30
2019-04-13T10:01:46.888Z,10.50
2019-04-13T10:02:46.845Z,10.30
2019-04-13T10:03:46.839Z,8.50
2019-04-13T10:04:49.234Z,9.00
2019-04-13T10:05:46.813Z,9.00
2019-04-13T10:06:46.814Z,9.00
2019-04-13T10:07:46.804Z,9.20
2019-04-13T10:08:55.906Z,9.20
2019-04-13T10:09:47.798Z,8.70
2019-04-13T10:10:46.767Z,9.10
2019-04-13T10:11:46.786Z,8.10
2019-04-13T10:12:47.026Z,10.10
2019-04-13T10:13:48.577Z,8.10
2019-04-13T10:14:46.751Z,7.80
2019-04-13T10:15:48.671Z,6.80
2019-04-13T10:16:46.716Z,7.50
2019-04-13T10:17:46.693Z,7.20
2019-04-13T10:18:46.700Z,7.50
2019-04-13T10:19:46.660Z,6.90
2019-04-13T10:20:46.706Z,6.80
2019-04-13T10:21:46.995Z,6.90
2019-04-13T10:22:46.629Z,7.70
2019-04-13T10:23:46.647Z,8.30
2019-04-13T10:24:46.619Z,7.10
2019-04-13T10:25:46.616Z,7.20
2019-04-13T10:26:48.546Z,7.00
2019-04-13T10:27:47.674Z,6.90
2019-04-13T10:28:47.994Z,6.40
2019-04-13T10:29:47.132Z,6.80
2019-04-13T10:30:46.548Z,6.70
2019-04-13T10:31:46.534Z,6.70
2019-04-13T10:32:46.529Z,6.60
2019-04-13T10:33:46.519Z,6.80
2019-04-13T10:34:46.583Z,6.80
2019-04-13T10:35:46.955Z,6.50
2019-04-13T10:36:46.498Z,6.90
2019-04-13T10:37:46.473Z,6.30
2019-04-13T10:38:46.466Z,6.20
2019-04-13T10:39:46.694Z,6.10
2019-04-13T10:40:46.459Z,6.40
2019-04-13T10:41:46.442Z,6.50
2019-04-13T10:42:46.423Z,6.40
2019-04-13T10:43:46.407Z,6.70
2019-04-13T10:44:46.396Z,5.80
2019-04-13T10:45:47.631Z,6.20
2019-04-13T10:46:46.418Z,5.90
2019-04-13T10:47:46.370Z,6.00
2019-04-13T10:48:46.361Z,6.00
2019-04-13T10:49:46.343Z,5.90
2019-04-13T10:50:46.332Z,5.80
2019-04-13T10:51:47.247Z,7.30
2019-04-13T10:52:46.341Z,5.90
2019-04-13T10:53:46.304Z,6.40
2019-04-13T10:54:46.317Z,5.80
2019-04-13T10:55:46.279Z,6.20
2019-04-13T10:56:46.295Z,5.70
2019-04-13T10:57:46.281Z,5.90
2019-04-13T10:58:46.281Z,6.30
2019-04-13T10:59:50.591Z,6.40
2019-04-13T11:00:46.227Z,6.30
2019-04-13T11:01:46.253Z,6.20
2019-04-13T11:02:46.203Z,6.80
2019-04-13T11:03:46.194Z,6.60
2019-04-13T11:04:46.242Z,6.80
2019-04-13T11:05:46.180Z,7.50
2019-04-13T11:06:46.160Z,6.00
2019-04-13T11:07:46.153Z,6.50
2019-04-13T11:08:46.139Z,6.70
2019-04-13T11:09:46.197Z,6.70
2019-04-13T11:10:46.142Z,6.80
2019-04-13T11:11:46.119Z,6.10
2019-04-13T11:12:46.096Z,5.80
2019-04-13T11:13:46.085Z,6.80
2019-04-13T11:14:46.075Z,7.00
2019-04-13T11:15:46.091Z,6.70
2019-04-13T11:16:46.066Z,6.60
2019-04-13T11:17:46.311Z,6.80
2019-04-13T11:18:46.030Z,6.40
2019-04-13T11:19:46.019Z,7.90
2019-04-13T11:20:46.045Z,7.20
2019-04-13T11:21:47.234Z,6.70
2019-04-13T11:22:46.028Z,6.60
2019-04-13T11:23:46.222Z,7.20
2019-04-13T11:24:45.966Z,6.50
2019-04-13T11:25:45.990Z,9.50
2019-04-13T11:26:45.957Z,9.30
2019-04-13T11:27:45.943Z,7.20
2019-04-13T11:28:45.937Z,9.20
2019-04-13T11:29:45.923Z,7.20
2019-04-13T11:30:45.903Z,7.90
2019-04-13T11:31:46.044Z,7.80
2019-04-13T11:32:45.899Z,7.40
2019-04-13T11:33:45.872Z,8.20
2019-04-13T11:34:45.872Z,8.20
2019-04-13T11:35:45.851Z,10.30
2019-04-13T11:36:45.873Z,9.10
2019-04-13T11:37:45.828Z,9.00
2019-04-13T11:38:45.813Z,10.20
2019-04-13T11:39:45.833Z,8.50
2019-04-13T11:40:45.812Z,9.20
2019-04-13T11:41:45.801Z,8.50
2019-04-13T11:42:45.789Z,8.20
2019-04-13T11:43:45.767Z,8.00
2019-04-13T11:44:48.282Z,8.40
2019-04-13T11:45:45.752Z,9.30
2019-04-13T11:46:45.762Z,9.80
2019-04-13T11:47:45.772Z,10.00
2019-04-13T11:48:45.724Z,8.50
2019-04-13T11:49:45.698Z,9.00
2019-04-13T11:50:45.685Z,9.50
2019-04-13T11:51:45.686Z,9.40
2019-04-13T11:52:45.693Z,10.50
2019-04-13T11:53:45.663Z,9.80
2019-04-13T11:54:45.655Z,9.70
2019-04-13T11:55:45.632Z,9.60
2019-04-13T11:56:45.624Z,8.80
2019-04-13T11:57:47.326Z,10.10
2019-04-13T11:58:45.632Z,9.60
2019-04-13T11:59:46.090Z,9.10
2019-04-13T12:00:45.780Z,9.30
2019-04-13T12:01:45.674Z,9.60
2019-04-13T12:02:45.567Z,10.30
2019-04-13T12:03:45.547Z,8.80
2019-04-13T12:04:45.586Z,8.80
2019-04-13T12:05:45.524Z,9.40
2019-04-13T12:06:45.533Z,8.80
2019-04-13T12:07:47.437Z,8.70
2019-04-13T12:08:45.495Z,8.90
2019-04-13T12:09:50.015Z,9.80
2019-04-13T12:10:45.492Z,8.90
2019-04-13T12:11:45.459Z,9.70
2019-04-13T12:12:45.471Z,9.10
2019-04-13T12:13:45.439Z,9.10
2019-04-13T12:14:45.438Z,9.20
2019-04-13T12:15:45.420Z,9.30
2019-04-13T12:16:45.434Z,9.10
2019-04-13T12:17:45.395Z,9.30
2019-04-13T12:18:45.400Z,8.50
2019-04-13T12:19:45.381Z,10.30
2019-04-13T12:20:45.366Z,8.90
2019-04-13T12:21:45.363Z,8.90
2019-04-13T12:22:45.343Z,8.50
2019-04-13T12:23:45.330Z,9.60
2019-04-13T12:24:45.323Z,8.90
2019-04-13T12:25:45.337Z,10.10
2019-04-13T12:26:45.960Z,9.20
2019-04-13T12:27:45.313Z,9.30
2019-04-13T12:28:45.292Z,9.70
2019-04-13T12:29:45.289Z,9.50
2019-04-13T12:30:45.531Z,8.70
2019-04-13T12:31:45.251Z,8.10
2019-04-13T12:32:47.223Z,9.60
2019-04-13T12:33:45.235Z,9.50
2019-04-13T12:34:45.221Z,11.50
2019-04-13T12:35:45.226Z,10.60
2019-04-13T12:36:45.209Z,9.70
2019-04-13T12:37:45.198Z,10.40
2019-04-13T12:38:50.050Z,9.80
2019-04-13T12:39:46.160Z,11.30
2019-04-13T12:40:45.151Z,26.50
2019-04-13T12:41:45.142Z,10.20
2019-04-13T12:42:45.144Z,9.30
2019-04-13T12:43:45.144Z,8.60
2019-04-13T12:44:45.107Z,9.00
2019-04-13T12:45:45.094Z,7.90
2019-04-13T12:46:45.084Z,11.40
2019-04-13T12:47:46.331Z,9.10
2019-04-13T12:48:45.063Z,9.80
2019-04-13T12:49:45.094Z,8.50
2019-04-13T12:50:45.053Z,8.80
2019-04-13T12:51:45.039Z,8.60
2019-04-13T12:52:45.035Z,8.30
2019-04-13T12:53:45.020Z,8.50
2019-04-13T12:54:45.011Z,7.90
2019-04-13T12:55:44.995Z,9.60
2019-04-13T12:56:44.997Z,9.20
2019-04-13T12:57:48.845Z,9.50
2019-04-13T12:58:44.967Z,8.30
2019-04-13T12:59:44.965Z,8.40
2019-04-13T13:00:44.954Z,7.80
2019-04-13T13:01:45.405Z,8.50
2019-04-13T13:02:44.941Z,8.20
2019-04-13T13:03:44.903Z,7.90
2019-04-13T13:04:44.910Z,8.00
2019-04-13T13:05:46.262Z,8.00
2019-04-13T13:06:44.875Z,7.20
2019-04-13T13:07:44.870Z,8.20